createdAt,value
2023-01-07T00:05:51.196Z,11.43
2023-01-07T00:11:44.132Z,13.73
2023-01-07T00:17:36.626Z,13.07
2023-01-07T00:23:31.587Z,12.43
2023-01-07T00:29:23.843Z,14.15
2023-01-07T00:35:25.367Z,13.50
2023-01-07T00:41:17.658Z,15.60
2023-01-07T00:47:10.635Z,20.48
2023-01-07T00:53:03.383Z,16.40
2023-01-07T00:58:55.867Z,19.60
2023-01-07T01:04:48.904Z,19.17
2023-01-07T01:10:41.587Z,15.07
2023-01-07T01:16:33.861Z,16.80
2023-01-07T01:22:27.006Z,15.20
2023-01-07T01:28:19.312Z,15.20
2023-01-07T01:34:11.769Z,13.23
2023-01-07T01:40:06.992Z,12.90
2023-01-07T01:46:04.989Z,11.82
2023-01-07T01:52:04.417Z,8.40
2023-01-07T01:58:01.225Z,11.98
2023-01-07T02:03:54.026Z,15.85
2023-01-07T02:16:17.766Z,14.05
2023-01-07T02:22:26.444Z,13.00
2023-01-07T02:28:55.915Z,12.65
2023-01-07T02:34:57.984Z,13.02
2023-01-07T02:41:10.481Z,16.43
2023-01-07T02:47:08.307Z,16.13
2023-01-07T02:53:00.669Z,14.35
2023-01-07T02:58:55.805Z,12.98
2023-01-07T03:05:04.829Z,10.32
2023-01-07T03:11:08.021Z,15.90
2023-01-07T03:17:05.113Z,22.48
2023-01-07T03:22:58.885Z,31.83
2023-01-07T03:28:53.463Z,29.02
2023-01-07T03:34:46.463Z,18.98
2023-01-07T03:46:37.667Z,24.83
2023-01-07T03:52:30.825Z,48.08
2023-01-07T03:58:22.586Z,60.67
2023-01-07T04:04:17.376Z,39.53
2023-01-07T04:10:10.360Z,28.10
2023-01-07T04:21:56.106Z,24.27
2023-01-07T04:27:48.185Z,22.73
2023-01-07T04:33:41.359Z,21.10
2023-01-07T04:39:34.231Z,19.60
2023-01-07T04:45:27.247Z,21.65
2023-01-07T04:51:20.645Z,17.23
2023-01-07T04:57:13.183Z,18.02
2023-01-07T05:03:05.997Z,22.43
2023-01-07T05:08:58.433Z,18.40
2023-01-07T05:14:51.415Z,21.95
2023-01-07T05:20:47.431Z,16.73
2023-01-07T05:26:40.160Z,18.50
2023-01-07T05:32:33.088Z,16.38
2023-01-07T05:38:26.170Z,18.13
2023-01-07T05:44:18.425Z,20.23
2023-01-07T05:50:10.350Z,21.73
2023-01-07T05:56:02.488Z,22.63
2023-01-07T06:01:55.512Z,23.88
2023-01-07T06:07:48.886Z,26.00
2023-01-07T06:13:41.386Z,20.80
2023-01-07T06:19:33.446Z,21.60
2023-01-07T06:25:25.516Z,22.88
2023-01-07T06:31:17.484Z,25.85
2023-01-07T06:37:09.798Z,31.02
2023-01-07T06:43:03.620Z,30.85
2023-01-07T06:48:57.713Z,27.70
2023-01-07T06:54:50.667Z,29.42
2023-01-07T07:00:43.165Z,30.07
2023-01-07T07:06:35.767Z,27.20
2023-01-07T07:12:28.571Z,28.95
2023-01-07T07:18:21.883Z,22.55
2023-01-07T07:24:15.066Z,25.25
2023-01-07T07:30:08.654Z,22.20
2023-01-07T07:36:01.727Z,21.15
2023-01-07T07:41:54.967Z,20.88
2023-01-07T07:47:47.608Z,16.37
2023-01-07T07:53:39.907Z,18.00
2023-01-07T07:59:32.633Z,11.47
2023-01-07T08:05:25.160Z,14.05
2023-01-07T08:11:18.397Z,15.73
2023-01-07T08:17:10.989Z,17.90
2023-01-07T08:23:05.915Z,19.47
2023-01-07T08:28:58.807Z,15.50
2023-01-07T08:34:50.985Z,17.05
2023-01-07T08:40:44.632Z,18.23
2023-01-07T08:46:38.090Z,24.50
2023-01-07T08:52:30.664Z,16.25
2023-01-07T08:58:23.138Z,17.30
2023-01-07T09:04:17.420Z,18.65
2023-01-07T09:10:13.775Z,19.52
2023-01-07T09:16:06.765Z,19.33
2023-01-07T09:21:59.309Z,19.88
2023-01-07T09:27:51.999Z,16.05
2023-01-07T09:33:43.734Z,14.95
2023-01-07T09:39:35.630Z,14.93
2023-01-07T09:45:41.120Z,15.32
2023-01-07T09:51:39.382Z,15.20
2023-01-07T09:57:32.030Z,15.23
2023-01-07T10:03:47.195Z,15.18
2023-01-07T10:10:18.209Z,13.35
2023-01-07T10:16:53.184Z,17.15
2023-01-07T10:22:51.853Z,13.65
2023-01-07T10:28:51.202Z,16.20
2023-01-07T10:34:54.130Z,16.08
2023-01-07T10:40:56.839Z,16.75
2023-01-07T10:47:17.717Z,16.33
2023-01-07T10:53:19.425Z,15.02
2023-01-07T10:59:21.208Z,13.93
2023-01-07T11:05:15.467Z,13.88
2023-01-07T11:11:15.773Z,12.98
2023-01-07T11:17:12.295Z,14.27
2023-01-07T11:23:37.296Z,12.68
2023-01-07T11:29:36.317Z,13.93
2023-01-07T11:35:30.128Z,11.63
2023-01-07T11:41:25.463Z,11.30
2023-01-07T11:47:19.867Z,13.00
2023-01-07T11:53:16.521Z,14.10
2023-01-07T11:59:17.219Z,13.27
2023-01-07T12:05:23.001Z,14.07
2023-01-07T12:11:15.696Z,11.65
2023-01-07T12:17:08.549Z,11.95
2023-01-07T12:23:20.366Z,11.05
2023-01-07T12:29:41.187Z,11.20
2023-01-07T12:35:43.455Z,11.23
2023-01-07T12:41:45.429Z,12.32
2023-01-07T12:47:42.612Z,11.90
2023-01-07T12:53:47.038Z,13.20
2023-01-07T12:59:45.836Z,13.55
2023-01-07T13:05:57.288Z,11.93
2023-01-07T13:12:40.582Z,13.57
2023-01-07T13:18:30.077Z,11.40
2023-01-07T13:24:54.959Z,12.65
2023-01-07T13:31:30.477Z,10.18
2023-01-07T13:37:46.561Z,8.43
2023-01-07T13:43:38.652Z,6.95
2023-01-07T13:49:33.768Z,8.90
2023-01-07T13:55:43.209Z,10.27
2023-01-07T14:02:16.177Z,10.07
2023-01-07T14:08:10.285Z,9.17
2023-01-07T14:14:21.748Z,11.10
2023-01-07T14:20:32.761Z,18.10
2023-01-07T14:26:50.829Z,20.65
2023-01-07T14:32:44.958Z,16.58
2023-01-07T14:38:37.827Z,16.83
2023-01-07T14:44:30.899Z,19.93
2023-01-07T14:50:34.842Z,19.83
2023-01-07T14:56:48.370Z,24.57
2023-01-07T15:03:02.507Z,19.92
2023-01-07T15:10:00.049Z,22.60
2023-01-07T15:16:01.494Z,21.58
2023-01-07T15:21:56.578Z,23.23
2023-01-07T15:27:59.499Z,28.55
2023-01-07T15:33:59.502Z,26.90
2023-01-07T15:39:58.242Z,29.48
2023-01-07T15:46:03.656Z,34.00
2023-01-07T15:51:59.123Z,35.90
2023-01-07T15:57:57.428Z,44.67
2023-01-07T16:03:53.947Z,46.40
2023-01-07T16:09:46.128Z,47.80
2023-01-07T16:15:41.458Z,48.20
2023-01-07T16:21:44.418Z,57.42
2023-01-07T16:27:38.619Z,58.67
2023-01-07T16:33:34.573Z,55.17
2023-01-07T16:39:39.019Z,61.90
2023-01-07T16:51:50.539Z,63.45
2023-01-07T16:57:45.392Z,56.65
2023-01-07T17:03:54.725Z,58.28
2023-01-07T17:09:47.416Z,56.40
2023-01-07T17:15:40.633Z,53.40
2023-01-07T17:21:42.004Z,59.08
2023-01-07T17:27:40.268Z,72.88
2023-01-07T17:33:33.348Z,70.13
2023-01-07T17:39:26.550Z,73.82
2023-01-07T17:45:21.327Z,70.07
2023-01-07T17:51:14.395Z,75.88
2023-01-07T17:57:11.429Z,72.88
2023-01-07T18:03:04.798Z,83.20
2023-01-07T18:08:57.485Z,83.70
2023-01-07T18:14:50.559Z,88.07
2023-01-07T18:20:43.006Z,81.20
2023-01-07T18:26:35.326Z,78.65
2023-01-07T18:32:28.979Z,80.10
2023-01-07T18:44:14.615Z,79.80
2023-01-07T18:50:08.729Z,73.55
2023-01-07T18:56:02.409Z,77.88
2023-01-07T19:01:58.271Z,87.13
2023-01-07T19:07:50.521Z,74.15
2023-01-07T19:13:43.503Z,89.50
2023-01-07T19:19:47.321Z,86.65
2023-01-07T19:25:40.597Z,77.43
2023-01-07T19:31:34.350Z,88.78
2023-01-07T19:37:26.426Z,79.57
2023-01-07T19:43:19.134Z,81.68
2023-01-07T19:49:14.837Z,89.00
2023-01-07T19:55:07.853Z,87.93
2023-01-07T20:01:15.860Z,89.65
2023-01-07T20:07:09.755Z,100.47
2023-01-07T20:13:03.581Z,110.43
2023-01-07T20:18:56.295Z,95.50
2023-01-07T20:24:48.638Z,91.18
2023-01-07T20:30:40.655Z,91.32
2023-01-07T20:36:33.255Z,100.10
2023-01-07T20:42:27.074Z,105.90
2023-01-07T20:48:25.363Z,121.53
2023-01-07T20:54:18.271Z,111.68
2023-01-07T21:00:11.741Z,113.55
2023-01-07T21:06:03.867Z,113.70
2023-01-07T21:11:56.870Z,117.82
2023-01-07T21:17:50.123Z,128.63
2023-01-07T21:23:43.269Z,132.68
2023-01-07T21:29:35.775Z,137.45
2023-01-07T21:35:27.796Z,136.60
2023-01-07T21:41:20.291Z,142.80
2023-01-07T21:47:12.935Z,141.45
2023-01-07T21:53:05.947Z,135.07
2023-01-07T21:59:00.134Z,122.82
2023-01-07T22:04:53.874Z,124.60
2023-01-07T22:10:49.051Z,140.45
2023-01-07T22:16:42.569Z,126.32
2023-01-07T22:22:34.698Z,130.27
2023-01-07T22:28:27.214Z,130.68
2023-01-07T22:34:21.652Z,125.75
2023-01-07T22:40:15.217Z,123.32
2023-01-07T22:46:15.994Z,115.43
2023-01-07T22:52:08.179Z,114.95
2023-01-07T22:58:01.526Z,109.47
2023-01-07T23:03:54.294Z,108.25
2023-01-07T23:09:46.758Z,97.70
2023-01-07T23:15:39.718Z,97.35
2023-01-07T23:33:18.200Z,91.80
2023-01-07T23:39:13.432Z,78.35
2023-01-07T23:45:07.476Z,89.00
2023-01-07T23:51:12.177Z,86.68
2023-01-07T23:57:04.378Z,86.93
